sensor_id;sensor_type;location;lat;lon;timestamp;P1;durP1;ratioP1;P2;durP2;ratioP2
74912;SDS011;63878;55.624;37.304;2023-03-01T00:08:59;0.93;;;0.25;;
74912;SDS011;63878;55.624;37.304;2023-03-01T00:18:59;2.25;;;0.40;;
74912;SDS011;63878;55.624;37.304;2023-03-01T00:28:59;2.03;;;0.50;;
74912;SDS011;63878;55.624;37.304;2023-03-01T00:39:01;1.23;;;0.60;;
74912;SDS011;63878;55.624;37.304;2023-03-01T00:49:02;1.13;;;0.45;;
74912;SDS011;63878;55.624;37.304;2023-03-01T00:59:03;6.53;;;0.75;;
74912;SDS011;63878;55.624;37.304;2023-03-01T01:09:04;2.55;;;0.60;;
74912;SDS011;63878;55.624;37.304;2023-03-01T01:19:06;0.75;;;0.22;;
74912;SDS011;63878;55.624;37.304;2023-03-01T01:29:07;0.32;;;0.20;;
74912;SDS011;63878;55.624;37.304;2023-03-01T01:39:08;2.38;;;0.30;;
74912;SDS011;63878;55.624;37.304;2023-03-01T01:49:16;2.30;;;0.75;;
74912;SDS011;63878;55.624;37.304;2023-03-01T01:59:18;1.80;;;0.32;;
74912;SDS011;63878;55.624;37.304;2023-03-01T02:09:20;1.15;;;0.40;;
74912;SDS011;63878;55.624;37.304;2023-03-01T02:29:45;1.60;;;0.30;;
74912;SDS011;63878;55.624;37.304;2023-03-01T02:39:46;1.50;;;0.80;;
74912;SDS011;63878;55.624;37.304;2023-03-01T02:49:50;1.38;;;0.40;;
74912;SDS011;63878;55.624;37.304;2023-03-01T02:59:51;1.30;;;0.50;;
74912;SDS011;63878;55.624;37.304;2023-03-01T03:09:54;1.42;;;0.35;;
74912;SDS011;63878;55.624;37.304;2023-03-01T03:19:54;1.00;;;0.30;;
74912;SDS011;63878;55.624;37.304;2023-03-01T03:29:55;2.28;;;0.50;;
74912;SDS011;63878;55.624;37.304;2023-03-01T03:39:56;1.33;;;0.50;;
74912;SDS011;63878;55.624;37.304;2023-03-01T03:49:56;2.53;;;0.30;;
74912;SDS011;63878;55.624;37.304;2023-03-01T03:59:57;2.05;;;0.52;;
74912;SDS011;63878;55.624;37.304;2023-03-01T04:09:58;2.80;;;0.70;;
74912;SDS011;63878;55.624;37.304;2023-03-01T04:19:58;1.27;;;0.50;;
74912;SDS011;63878;55.624;37.304;2023-03-01T04:29:59;2.83;;;0.80;;
74912;SDS011;63878;55.624;37.304;2023-03-01T04:39:59;1.17;;;0.70;;
74912;SDS011;63878;55.624;37.304;2023-03-01T04:50:00;1.30;;;0.68;;
74912;SDS011;63878;55.624;37.304;2023-03-01T05:00:02;2.33;;;0.82;;
74912;SDS011;63878;55.624;37.304;2023-03-01T05:10:04;1.77;;;0.73;;
74912;SDS011;63878;55.624;37.304;2023-03-01T05:20:04;4.20;;;0.77;;
74912;SDS011;63878;55.624;37.304;2023-03-01T05:30:06;1.92;;;0.50;;
74912;SDS011;63878;55.624;37.304;2023-03-01T05:40:07;1.38;;;0.50;;
74912;SDS011;63878;55.624;37.304;2023-03-01T05:50:17;2.05;;;0.77;;
74912;SDS011;63878;55.624;37.304;2023-03-01T06:00:20;3.55;;;0.90;;
74912;SDS011;63878;55.624;37.304;2023-03-01T06:10:22;3.35;;;0.90;;
74912;SDS011;63878;55.624;37.304;2023-03-01T06:20:23;1.27;;;0.40;;
74912;SDS011;63878;55.624;37.304;2023-03-01T06:30:25;1.17;;;0.60;;
74912;SDS011;63878;55.624;37.304;2023-03-01T06:40:26;2.25;;;0.93;;
74912;SDS011;63878;55.624;37.304;2023-03-01T06:50:27;3.70;;;0.90;;
74912;SDS011;63878;55.624;37.304;2023-03-01T07:00:27;3.17;;;0.95;;
74912;SDS011;63878;55.624;37.304;2023-03-01T07:10:29;2.75;;;0.93;;
74912;SDS011;63878;55.624;37.304;2023-03-01T07:20:29;3.08;;;0.73;;
74912;SDS011;63878;55.624;37.304;2023-03-01T07:30:30;1.05;;;0.52;;
74912;SDS011;63878;55.624;37.304;2023-03-01T07:40:30;1.50;;;0.30;;
74912;SDS011;63878;55.624;37.304;2023-03-01T07:50:31;3.33;;;1.10;;
74912;SDS011;63878;55.624;37.304;2023-03-01T08:00:31;1.45;;;0.60;;
74912;SDS011;63878;55.624;37.304;2023-03-01T08:10:32;1.58;;;0.63;;
74912;SDS011;63878;55.624;37.304;2023-03-01T08:20:32;1.85;;;0.63;;
74912;SDS011;63878;55.624;37.304;2023-03-01T08:30:33;4.10;;;1.00;;
74912;SDS011;63878;55.624;37.304;2023-03-01T08:40:34;2.55;;;0.95;;
74912;SDS011;63878;55.624;37.304;2023-03-01T08:50:35;3.10;;;0.85;;
74912;SDS011;63878;55.624;37.304;2023-03-01T09:00:35;1.80;;;0.40;;
74912;SDS011;63878;55.624;37.304;2023-03-01T09:10:39;2.20;;;0.60;;
74912;SDS011;63878;55.624;37.304;2023-03-01T09:20:39;3.13;;;0.50;;
74912;SDS011;63878;55.624;37.304;2023-03-01T09:30:39;1.73;;;0.73;;
74912;SDS011;63878;55.624;37.304;2023-03-01T09:40:43;2.35;;;0.80;;
74912;SDS011;63878;55.624;37.304;2023-03-01T09:50:44;1.98;;;1.13;;
74912;SDS011;63878;55.624;37.304;2023-03-01T10:00:46;3.67;;;1.13;;
74912;SDS011;63878;55.624;37.304;2023-03-01T10:10:49;2.03;;;0.73;;
74912;SDS011;63878;55.624;37.304;2023-03-01T10:30:54;2.30;;;0.77;;
74912;SDS011;63878;55.624;37.304;2023-03-01T11:00:58;1.70;;;0.40;;
74912;SDS011;63878;55.624;37.304;2023-03-01T11:11:04;2.13;;;0.57;;
74912;SDS011;63878;55.624;37.304;2023-03-01T11:21:20;1.52;;;0.60;;
74912;SDS011;63878;55.624;37.304;2023-03-01T11:31:21;3.00;;;0.65;;
74912;SDS011;63878;55.624;37.304;2023-03-01T11:41:25;1.50;;;0.50;;
74912;SDS011;63878;55.624;37.304;2023-03-01T11:51:38;2.83;;;0.60;;
74912;SDS011;63878;55.624;37.304;2023-03-01T12:12:20;1.40;;;0.25;;
74912;SDS011;63878;55.624;37.304;2023-03-01T12:23:07;1.63;;;0.50;;
74912;SDS011;63878;55.624;37.304;2023-03-01T12:33:18;2.67;;;1.15;;
74912;SDS011;63878;55.624;37.304;2023-03-01T12:53:34;1.67;;;0.60;;
74912;SDS011;63878;55.624;37.304;2023-03-01T13:04:23;2.75;;;0.70;;
74912;SDS011;63878;55.624;37.304;2023-03-01T13:34:41;3.97;;;1.23;;
74912;SDS011;63878;55.624;37.304;2023-03-01T13:44:46;1.48;;;0.63;;
74912;SDS011;63878;55.624;37.304;2023-03-01T13:54:47;1.00;;;0.50;;
74912;SDS011;63878;55.624;37.304;2023-03-01T14:05:00;1.40;;;0.53;;
74912;SDS011;63878;55.624;37.304;2023-03-01T14:15:24;2.05;;;0.90;;
74912;SDS011;63878;55.624;37.304;2023-03-01T14:25:45;2.35;;;0.80;;
74912;SDS011;63878;55.624;37.304;2023-03-01T14:36:01;2.00;;;1.05;;
74912;SDS011;63878;55.624;37.304;2023-03-01T14:46:02;1.88;;;0.80;;
74912;SDS011;63878;55.624;37.304;2023-03-01T14:56:03;2.37;;;0.80;;
74912;SDS011;63878;55.624;37.304;2023-03-01T15:06:05;3.22;;;1.40;;
74912;SDS011;63878;55.624;37.304;2023-03-01T15:16:13;3.88;;;1.00;;
74912;SDS011;63878;55.624;37.304;2023-03-01T15:26:30;3.40;;;0.77;;
74912;SDS011;63878;55.624;37.304;2023-03-01T15:36:39;2.35;;;0.70;;
74912;SDS011;63878;55.624;37.304;2023-03-01T15:46:44;3.10;;;0.90;;
74912;SDS011;63878;55.624;37.304;2023-03-01T15:56:46;0.98;;;0.63;;
74912;SDS011;63878;55.624;37.304;2023-03-01T16:06:47;2.37;;;0.63;;
74912;SDS011;63878;55.624;37.304;2023-03-01T16:16:47;1.93;;;0.63;;
74912;SDS011;63878;55.624;37.304;2023-03-01T16:26:48;1.50;;;0.70;;
74912;SDS011;63878;55.624;37.304;2023-03-01T16:36:49;1.67;;;0.90;;
74912;SDS011;63878;55.624;37.304;2023-03-01T16:46:49;2.73;;;0.80;;
74912;SDS011;63878;55.624;37.304;2023-03-01T16:56:50;1.42;;;0.88;;
74912;SDS011;63878;55.624;37.304;2023-03-01T17:06:50;2.78;;;0.93;;
74912;SDS011;63878;55.624;37.304;2023-03-01T17:16:51;1.85;;;0.93;;
74912;SDS011;63878;55.624;37.304;2023-03-01T17:26:52;2.10;;;0.70;;
74912;SDS011;63878;55.624;37.304;2023-03-01T17:36:52;3.17;;;1.30;;
74912;SDS011;63878;55.624;37.304;2023-03-01T17:46:53;3.80;;;1.20;;
74912;SDS011;63878;55.624;37.304;2023-03-01T17:56:53;1.33;;;0.73;;
74912;SDS011;63878;55.624;37.304;2023-03-01T18:06:54;4.13;;;2.10;;
74912;SDS011;63878;55.624;37.304;2023-03-01T18:16:55;5.83;;;2.23;;
74912;SDS011;63878;55.624;37.304;2023-03-01T18:26:55;5.32;;;1.73;;
74912;SDS011;63878;55.624;37.304;2023-03-01T18:36:56;5.90;;;1.65;;
74912;SDS011;63878;55.624;37.304;2023-03-01T18:46:56;4.72;;;1.65;;
74912;SDS011;63878;55.624;37.304;2023-03-01T18:56:57;4.20;;;1.27;;
74912;SDS011;63878;55.624;37.304;2023-03-01T19:06:58;2.87;;;1.30;;
74912;SDS011;63878;55.624;37.304;2023-03-01T19:16:59;3.40;;;0.85;;
74912;SDS011;63878;55.624;37.304;2023-03-01T19:27:00;5.75;;;0.93;;
74912;SDS011;63878;55.624;37.304;2023-03-01T19:37:01;2.28;;;0.80;;
74912;SDS011;63878;55.624;37.304;2023-03-01T19:47:01;2.47;;;0.60;;
74912;SDS011;63878;55.624;37.304;2023-03-01T19:57:02;2.37;;;0.87;;
74912;SDS011;63878;55.624;37.304;2023-03-01T20:07:03;1.52;;;1.02;;
74912;SDS011;63878;55.624;37.304;2023-03-01T20:17:03;3.33;;;0.90;;
74912;SDS011;63878;55.624;37.304;2023-03-01T20:27:04;4.77;;;2.00;;
74912;SDS011;63878;55.624;37.304;2023-03-01T20:37:05;7.35;;;2.30;;
74912;SDS011;63878;55.624;37.304;2023-03-01T20:47:05;4.25;;;2.33;;
74912;SDS011;63878;55.624;37.304;2023-03-01T20:57:05;8.07;;;2.50;;
74912;SDS011;63878;55.624;37.304;2023-03-01T21:07:06;6.45;;;1.60;;
74912;SDS011;63878;55.624;37.304;2023-03-01T21:17:07;2.67;;;1.30;;
74912;SDS011;63878;55.624;37.304;2023-03-01T21:27:09;4.40;;;1.10;;
74912;SDS011;63878;55.624;37.304;2023-03-01T21:37:10;2.90;;;1.23;;
74912;SDS011;63878;55.624;37.304;2023-03-01T21:47:11;7.13;;;1.50;;
74912;SDS011;63878;55.624;37.304;2023-03-01T21:57:11;3.33;;;1.40;;
74912;SDS011;63878;55.624;37.304;2023-03-01T22:07:12;3.05;;;0.95;;
74912;SDS011;63878;55.624;37.304;2023-03-01T22:17:12;5.88;;;1.60;;
74912;SDS011;63878;55.624;37.304;2023-03-01T22:27:12;5.07;;;1.83;;
74912;SDS011;63878;55.624;37.304;2023-03-01T22:37:13;3.92;;;1.80;;
74912;SDS011;63878;55.624;37.304;2023-03-01T22:47:14;4.70;;;2.10;;
74912;SDS011;63878;55.624;37.304;2023-03-01T22:57:14;3.30;;;1.80;;
74912;SDS011;63878;55.624;37.304;2023-03-01T23:07:15;3.58;;;1.50;;
74912;SDS011;63878;55.624;37.304;2023-03-01T23:17:16;5.75;;;1.52;;
74912;SDS011;63878;55.624;37.304;2023-03-01T23:27:16;5.93;;;1.35;;
74912;SDS011;63878;55.624;37.304;2023-03-01T23:37:17;1.92;;;0.75;;
74912;SDS011;63878;55.624;37.304;2023-03-01T23:47:17;3.35;;;0.85;;
74912;SDS011;63878;55.624;37.304;2023-03-01T23:57:18;2.00;;;0.90;;
